sensor_id;sensor_type;location;lat;lon;timestamp;temperature;humidity
69225;DHT22;56333;51.306;17.056;2023-02-15T00:01:06;1.87;77.32
69225;DHT22;56333;51.306;17.056;2023-02-15T00:02:36;1.89;77.57
69225;DHT22;56333;51.306;17.056;2023-02-15T00:04:06;1.90;77.90
69225;DHT22;56333;51.306;17.056;2023-02-15T00:05:37;1.92;77.97
69225;DHT22;56333;51.306;17.056;2023-02-15T00:07:07;1.93;77.85
69225;DHT22;56333;51.306;17.056;2023-02-15T00:08:38;1.92;77.78
69225;DHT22;56333;51.306;17.056;2023-02-15T00:10:09;1.91;77.63
69225;DHT22;56333;51.306;17.056;2023-02-15T00:11:39;1.88;77.50
69225;DHT22;56333;51.306;17.056;2023-02-15T00:13:14;1.85;77.72
69225;DHT22;56333;51.306;17.056;2023-02-15T00:14:43;1.85;77.53
69225;DHT22;56333;51.306;17.056;2023-02-15T00:16:13;1.82;77.45
69225;DHT22;56333;51.306;17.056;2023-02-15T00:17:42;1.82;77.47
69225;DHT22;56333;51.306;17.056;2023-02-15T00:19:14;1.80;77.68
69225;DHT22;56333;51.306;17.056;2023-02-15T00:20:45;1.81;77.95
69225;DHT22;56333;51.306;17.056;2023-02-15T00:22:14;1.81;78.25
69225;DHT22;56333;51.306;17.056;2023-02-15T00:23:44;1.81;78.32
69225;DHT22;56333;51.306;17.056;2023-02-15T00:25:14;1.81;78.22
69225;DHT22;56333;51.306;17.056;2023-02-15T00:26:45;1.81;78.05
69225;DHT22;56333;51.306;17.056;2023-02-15T00:28:15;1.80;77.95
69225;DHT22;56333;51.306;17.056;2023-02-15T00:29:46;1.78;78.00
69225;DHT22;56333;51.306;17.056;2023-02-15T00:31:15;1.77;77.90
69225;DHT22;56333;51.306;17.056;2023-02-15T00:32:45;1.76;78.03
69225;DHT22;56333;51.306;17.056;2023-02-15T00:34:17;1.75;77.88
69225;DHT22;56333;51.306;17.056;2023-02-15T00:35:57;1.75;78.15
69225;DHT22;56333;51.306;17.056;2023-02-15T00:37:27;1.79;78.40
69225;DHT22;56333;51.306;17.056;2023-02-15T00:38:56;1.81;78.60
69225;DHT22;56333;51.306;17.056;2023-02-15T00:40:26;1.84;78.60
69225;DHT22;56333;51.306;17.056;2023-02-15T00:41:55;1.83;78.53
69225;DHT22;56333;51.306;17.056;2023-02-15T00:43:24;1.82;78.40
69225;DHT22;56333;51.306;17.056;2023-02-15T00:44:55;1.82;78.20
69225;DHT22;56333;51.306;17.056;2023-02-15T00:46:26;1.81;78.05
69225;DHT22;56333;51.306;17.056;2023-02-15T00:47:56;1.78;78.00
69225;DHT22;56333;51.306;17.056;2023-02-15T00:49:25;1.77;77.95
69225;DHT22;56333;51.306;17.056;2023-02-15T00:50:55;1.76;77.93
69225;DHT22;56333;51.306;17.056;2023-02-15T00:52:26;1.75;77.90
69225;DHT22;56333;51.306;17.056;2023-02-15T00:53:55;1.72;77.80
69225;DHT22;56333;51.306;17.056;2023-02-15T00:55:24;1.71;77.72
69225;DHT22;56333;51.306;17.056;2023-02-15T00:56:54;1.71;77.88
69225;DHT22;56333;51.306;17.056;2023-02-15T00:58:23;1.73;78.15
69225;DHT22;56333;51.306;17.056;2023-02-15T00:59:53;1.75;78.43
69225;DHT22;56333;51.306;17.056;2023-02-15T01:01:22;1.79;78.65
69225;DHT22;56333;51.306;17.056;2023-02-15T01:02:51;1.81;78.63
69225;DHT22;56333;51.306;17.056;2023-02-15T01:04:20;1.81;78.53
69225;DHT22;56333;51.306;17.056;2023-02-15T01:05:49;1.81;78.32
69225;DHT22;56333;51.306;17.056;2023-02-15T01:07:19;1.79;78.20
69225;DHT22;56333;51.306;17.056;2023-02-15T01:08:48;1.77;78.20
69225;DHT22;56333;51.306;17.056;2023-02-15T01:10:17;1.75;78.05
69225;DHT22;56333;51.306;17.056;2023-02-15T01:11:46;1.71;78.00
69225;DHT22;56333;51.306;17.056;2023-02-15T01:13:17;1.69;78.00
69225;DHT22;56333;51.306;17.056;2023-02-15T01:14:46;1.66;77.93
69225;DHT22;56333;51.306;17.056;2023-02-15T01:16:17;1.64;77.85
69225;DHT22;56333;51.306;17.056;2023-02-15T01:17:47;1.63;78.00
69225;DHT22;56333;51.306;17.056;2023-02-15T01:19:19;1.64;78.18
69225;DHT22;56333;51.306;17.056;2023-02-15T01:20:48;1.64;78.45
69225;DHT22;56333;51.306;17.056;2023-02-15T01:22:17;1.67;78.72
69225;DHT22;56333;51.306;17.056;2023-02-15T01:23:46;1.67;78.78
69225;DHT22;56333;51.306;17.056;2023-02-15T01:25:16;1.68;78.68
69225;DHT22;56333;51.306;17.056;2023-02-15T01:26:47;1.65;78.57
69225;DHT22;56333;51.306;17.056;2023-02-15T01:28:16;1.64;78.47
69225;DHT22;56333;51.306;17.056;2023-02-15T01:29:45;1.63;78.38
69225;DHT22;56333;51.306;17.056;2023-02-15T01:31:15;1.60;78.30
69225;DHT22;56333;51.306;17.056;2023-02-15T01:32:45;1.59;78.30
69225;DHT22;56333;51.306;17.056;2023-02-15T01:34:15;1.57;78.28
69225;DHT22;56333;51.306;17.056;2023-02-15T01:35:43;1.55;78.20
69225;DHT22;56333;51.306;17.056;2023-02-15T01:37:14;1.52;78.25
69225;DHT22;56333;51.306;17.056;2023-02-15T01:38:43;1.54;78.40
69225;DHT22;56333;51.306;17.056;2023-02-15T01:40:16;1.56;78.55
69225;DHT22;56333;51.306;17.056;2023-02-15T01:41:46;1.58;78.80
69225;DHT22;56333;51.306;17.056;2023-02-15T01:43:15;1.60;78.95
69225;DHT22;56333;51.306;17.056;2023-02-15T01:44:52;1.61;78.95
69225;DHT22;56333;51.306;17.056;2023-02-15T01:46:24;1.60;78.82
69225;DHT22;56333;51.306;17.056;2023-02-15T01:48:02;1.60;78.70
69225;DHT22;56333;51.306;17.056;2023-02-15T01:49:37;1.60;78.65
69225;DHT22;56333;51.306;17.056;2023-02-15T01:51:08;1.56;78.75
69225;DHT22;56333;51.306;17.056;2023-02-15T01:52:39;1.55;78.60
69225;DHT22;56333;51.306;17.056;2023-02-15T01:54:17;1.52;78.45
69225;DHT22;56333;51.306;17.056;2023-02-15T01:55:54;1.49;78.40
69225;DHT22;56333;51.306;17.056;2023-02-15T01:57:27;1.46;78.30
69225;DHT22;56333;51.306;17.056;2023-02-15T01:58:56;1.46;78.47
69225;DHT22;56333;51.306;17.056;2023-02-15T02:00:33;1.48;78.70
69225;DHT22;56333;51.306;17.056;2023-02-15T02:02:02;1.49;78.97
69225;DHT22;56333;51.306;17.056;2023-02-15T02:03:38;1.51;79.07
69225;DHT22;56333;51.306;17.056;2023-02-15T02:05:19;1.50;79.10
69225;DHT22;56333;51.306;17.056;2023-02-15T02:06:48;1.50;78.95
69225;DHT22;56333;51.306;17.056;2023-02-15T02:08:20;1.50;78.88
69225;DHT22;56333;51.306;17.056;2023-02-15T02:09:49;1.49;78.85
69225;DHT22;56333;51.306;17.056;2023-02-15T02:11:22;1.48;78.72
69225;DHT22;56333;51.306;17.056;2023-02-15T02:12:53;1.47;78.60
69225;DHT22;56333;51.306;17.056;2023-02-15T02:14:25;1.44;78.57
69225;DHT22;56333;51.306;17.056;2023-02-15T02:15:57;1.42;78.45
69225;DHT22;56333;51.306;17.056;2023-02-15T02:17:37;1.39;78.45
69225;DHT22;56333;51.306;17.056;2023-02-15T02:22:16;1.39;78.70
69225;DHT22;56333;51.306;17.056;2023-02-15T02:29:32;1.46;79.15
69225;DHT22;56333;51.306;17.056;2023-02-15T02:31:54;1.44;79.00
69225;DHT22;56333;51.306;17.056;2023-02-15T02:33:58;1.42;79.03
69225;DHT22;56333;51.306;17.056;2023-02-15T02:35:35;1.41;78.93
69225;DHT22;56333;51.306;17.056;2023-02-15T02:37:15;1.39;78.90
69225;DHT22;56333;51.306;17.056;2023-02-15T02:38:55;1.35;78.80
69225;DHT22;56333;51.306;17.056;2023-02-15T02:40:43;1.35;78.88
69225;DHT22;56333;51.306;17.056;2023-02-15T02:42:23;1.33;78.90
69225;DHT22;56333;51.306;17.056;2023-02-15T02:44:04;1.35;79.13
69225;DHT22;56333;51.306;17.056;2023-02-15T02:45:43;1.36;79.45
69225;DHT22;56333;51.306;17.056;2023-02-15T02:47:21;1.38;79.72
69225;DHT22;56333;51.306;17.056;2023-02-15T02:48:55;1.40;79.80
69225;DHT22;56333;51.306;17.056;2023-02-15T02:50:29;1.41;79.75
69225;DHT22;56333;51.306;17.056;2023-02-15T02:52:01;1.39;79.68
69225;DHT22;56333;51.306;17.056;2023-02-15T02:53:33;1.37;79.63
69225;DHT22;56333;51.306;17.056;2023-02-15T02:55:03;1.36;79.50
69225;DHT22;56333;51.306;17.056;2023-02-15T02:56:39;1.33;79.40
69225;DHT22;56333;51.306;17.056;2023-02-15T02:58:16;1.32;79.32
69225;DHT22;56333;51.306;17.056;2023-02-15T02:59:51;1.29;79.30
69225;DHT22;56333;51.306;17.056;2023-02-15T03:01:26;1.29;79.38
69225;DHT22;56333;51.306;17.056;2023-02-15T03:03:01;1.27;79.40
69225;DHT22;56333;51.306;17.056;2023-02-15T03:04:36;1.28;79.57
69225;DHT22;56333;51.306;17.056;2023-02-15T03:06:10;1.30;79.80
69225;DHT22;56333;51.306;17.056;2023-02-15T03:07:49;1.33;80.00
69225;DHT22;56333;51.306;17.056;2023-02-15T03:09:23;1.35;80.20
69225;DHT22;56333;51.306;17.056;2023-02-15T03:11:00;1.36;80.18
69225;DHT22;56333;51.306;17.056;2023-02-15T03:12:33;1.37;80.10
69225;DHT22;56333;51.306;17.056;2023-02-15T03:14:05;1.36;80.05
69225;DHT22;56333;51.306;17.056;2023-02-15T03:15:36;1.35;79.93
69225;DHT22;56333;51.306;17.056;2023-02-15T03:17:25;1.32;79.82
69225;DHT22;56333;51.306;17.056;2023-02-15T03:19:02;1.27;79.80
69225;DHT22;56333;51.306;17.056;2023-02-15T03:20:38;1.25;79.70
69225;DHT22;56333;51.306;17.056;2023-02-15T03:22:08;1.22;79.72
69225;DHT22;56333;51.306;17.056;2023-02-15T03:23:43;1.18;79.70
69225;DHT22;56333;51.306;17.056;2023-02-15T03:25:14;1.17;79.63
69225;DHT22;56333;51.306;17.056;2023-02-15T03:26:47;1.17;79.72
69225;DHT22;56333;51.306;17.056;2023-02-15T03:28:22;1.16;79.95
69225;DHT22;56333;51.306;17.056;2023-02-15T03:29:57;1.16;80.18
69225;DHT22;56333;51.306;17.056;2023-02-15T03:31:28;1.16;80.32
69225;DHT22;56333;51.306;17.056;2023-02-15T03:33:01;1.16;80.45
69225;DHT22;56333;51.306;17.056;2023-02-15T03:34:33;1.17;80.43
69225;DHT22;56333;51.306;17.056;2023-02-15T03:36:04;1.17;80.38
69225;DHT22;56333;51.306;17.056;2023-02-15T03:37:47;1.17;80.32
69225;DHT22;56333;51.306;17.056;2023-02-15T03:39:22;1.16;80.22
69225;DHT22;56333;51.306;17.056;2023-02-15T03:40:58;1.15;80.15
69225;DHT22;56333;51.306;17.056;2023-02-15T03:42:35;1.14;80.13
69225;DHT22;56333;51.306;17.056;2023-02-15T03:44:08;1.12;80.03
69225;DHT22;56333;51.306;17.056;2023-02-15T03:45:47;1.08;80.07
69225;DHT22;56333;51.306;17.056;2023-02-15T03:47:22;1.07;80.10
69225;DHT22;56333;51.306;17.056;2023-02-15T03:48:56;1.08;80.40
69225;DHT22;56333;51.306;17.056;2023-02-15T03:50:31;1.09;80.65
69225;DHT22;56333;51.306;17.056;2023-02-15T03:52:20;1.12;80.75
69225;DHT22;56333;51.306;17.056;2023-02-15T03:53:51;1.13;80.72
69225;DHT22;56333;51.306;17.056;2023-02-15T03:55:23;1.11;80.63
69225;DHT22;56333;51.306;17.056;2023-02-15T03:56:52;1.07;80.55
69225;DHT22;56333;51.306;17.056;2023-02-15T03:58:38;1.04;80.40
69225;DHT22;56333;51.306;17.056;2023-02-15T04:00:25;0.99;80.30
69225;DHT22;56333;51.306;17.056;2023-02-15T04:02:15;0.95;80.28
69225;DHT22;56333;51.306;17.056;2023-02-15T04:03:51;0.90;80.20
69225;DHT22;56333;51.306;17.056;2023-02-15T04:05:29;0.86;80.30
69225;DHT22;56333;51.306;17.056;2023-02-15T04:06:58;0.82;80.22
69225;DHT22;56333;51.306;17.056;2023-02-15T04:08:34;0.77;80.20
69225;DHT22;56333;51.306;17.056;2023-02-15T04:10:21;0.74;80.18
69225;DHT22;56333;51.306;17.056;2023-02-15T04:12:08;0.73;80.20
69225;DHT22;56333;51.306;17.056;2023-02-15T04:13:37;0.74;80.43
69225;DHT22;56333;51.306;17.056;2023-02-15T04:15:08;0.75;80.60
69225;DHT22;56333;51.306;17.056;2023-02-15T04:16:58;0.76;80.82
69225;DHT22;56333;51.306;17.056;2023-02-15T04:18:28;0.79;81.07
69225;DHT22;56333;51.306;17.056;2023-02-15T04:20:16;0.81;81.18
69225;DHT22;56333;51.306;17.056;2023-02-15T04:22:02;0.84;81.15
69225;DHT22;56333;51.306;17.056;2023-02-15T04:23:49;0.85;81.00
69225;DHT22;56333;51.306;17.056;2023-02-15T04:25:36;0.85;81.00
69225;DHT22;56333;51.306;17.056;2023-02-15T04:27:06;0.87;80.93
69225;DHT22;56333;51.306;17.056;2023-02-15T04:28:35;0.87;80.88
69225;DHT22;56333;51.306;17.056;2023-02-15T04:30:05;0.88;80.90
69225;DHT22;56333;51.306;17.056;2023-02-15T04:31:37;0.90;81.05
69225;DHT22;56333;51.306;17.056;2023-02-15T04:33:10;0.95;81.20
69225;DHT22;56333;51.306;17.056;2023-02-15T04:34:42;0.98;81.38
69225;DHT22;56333;51.306;17.056;2023-02-15T04:36:12;1.03;81.63
69225;DHT22;56333;51.306;17.056;2023-02-15T04:37:42;1.07;81.63
69225;DHT22;56333;51.306;17.056;2023-02-15T04:39:13;1.09;81.60
69225;DHT22;56333;51.306;17.056;2023-02-15T04:40:43;1.11;81.53
69225;DHT22;56333;51.306;17.056;2023-02-15T04:42:16;1.13;81.50
69225;DHT22;56333;51.306;17.056;2023-02-15T04:43:45;1.13;81.35
69225;DHT22;56333;51.306;17.056;2023-02-15T04:45:15;1.14;81.22
69225;DHT22;56333;51.306;17.056;2023-02-15T04:46:45;1.14;81.20
69225;DHT22;56333;51.306;17.056;2023-02-15T04:48:14;1.15;81.18
69225;DHT22;56333;51.306;17.056;2023-02-15T04:49:43;1.15;81.13
69225;DHT22;56333;51.306;17.056;2023-02-15T04:51:12;1.17;81.18
69225;DHT22;56333;51.306;17.056;2023-02-15T04:52:41;1.22;81.45
69225;DHT22;56333;51.306;17.056;2023-02-15T04:54:10;1.27;81.50
69225;DHT22;56333;51.306;17.056;2023-02-15T04:55:39;1.31;81.70
69225;DHT22;56333;51.306;17.056;2023-02-15T04:57:09;1.34;81.78
69225;DHT22;56333;51.306;17.056;2023-02-15T04:58:39;1.38;81.78
69225;DHT22;56333;51.306;17.056;2023-02-15T05:00:10;1.41;81.75
69225;DHT22;56333;51.306;17.056;2023-02-15T05:01:41;1.43;81.60
69225;DHT22;56333;51.306;17.056;2023-02-15T05:03:10;1.46;81.53
69225;DHT22;56333;51.306;17.056;2023-02-15T05:04:39;1.46;81.50
69225;DHT22;56333;51.306;17.056;2023-02-15T05:06:08;1.47;81.35
69225;DHT22;56333;51.306;17.056;2023-02-15T05:07:38;1.47;81.30
69225;DHT22;56333;51.306;17.056;2023-02-15T05:09:08;1.50;81.40
69225;DHT22;56333;51.306;17.056;2023-02-15T05:10:37;1.52;81.53
69225;DHT22;56333;51.306;17.056;2023-02-15T05:12:07;1.55;81.60
69225;DHT22;56333;51.306;17.056;2023-02-15T05:13:36;1.57;81.68
69225;DHT22;56333;51.306;17.056;2023-02-15T05:15:06;1.58;81.60
69225;DHT22;56333;51.306;17.056;2023-02-15T05:16:36;1.60;81.53
69225;DHT22;56333;51.306;17.056;2023-02-15T05:18:05;1.59;81.40
69225;DHT22;56333;51.306;17.056;2023-02-15T05:19:34;1.58;81.32
69225;DHT22;56333;51.306;17.056;2023-02-15T05:21:04;1.55;81.15
69225;DHT22;56333;51.306;17.056;2023-02-15T05:22:33;1.52;81.10
69225;DHT22;56333;51.306;17.056;2023-02-15T05:24:03;1.49;81.10
69225;DHT22;56333;51.306;17.056;2023-02-15T05:25:53;1.49;81.13
69225;DHT22;56333;51.306;17.056;2023-02-15T05:27:39;1.46;81.22
69225;DHT22;56333;51.306;17.056;2023-02-15T05:29:25;1.45;81.30
69225;DHT22;56333;51.306;17.056;2023-02-15T05:31:03;1.42;81.50
69225;DHT22;56333;51.306;17.056;2023-02-15T05:32:35;1.40;81.38
69225;DHT22;56333;51.306;17.056;2023-02-15T05:34:04;1.37;81.32
69225;DHT22;56333;51.306;17.056;2023-02-15T05:35:33;1.33;81.30
69225;DHT22;56333;51.306;17.056;2023-02-15T05:37:02;1.28;81.22
69225;DHT22;56333;51.306;17.056;2023-02-15T05:38:31;1.25;81.20
69225;DHT22;56333;51.306;17.056;2023-02-15T05:40:01;1.22;81.32
69225;DHT22;56333;51.306;17.056;2023-02-15T05:41:31;1.20;81.30
69225;DHT22;56333;51.306;17.056;2023-02-15T05:43:01;1.18;81.40
69225;DHT22;56333;51.306;17.056;2023-02-15T05:44:31;1.17;81.57
69225;DHT22;56333;51.306;17.056;2023-02-15T05:46:00;1.18;81.63
69225;DHT22;56333;51.306;17.056;2023-02-15T05:47:30;1.18;81.70
69225;DHT22;56333;51.306;17.056;2023-02-15T05:48:59;1.19;81.82
69225;DHT22;56333;51.306;17.056;2023-02-15T05:50:28;1.18;81.80
69225;DHT22;56333;51.306;17.056;2023-02-15T05:51:58;1.17;81.70
69225;DHT22;56333;51.306;17.056;2023-02-15T05:53:28;1.16;81.65
69225;DHT22;56333;51.306;17.056;2023-02-15T05:54:59;1.14;81.47
69225;DHT22;56333;51.306;17.056;2023-02-15T05:56:28;1.12;81.43
69225;DHT22;56333;51.306;17.056;2023-02-15T05:58:10;1.08;81.30
69225;DHT22;56333;51.306;17.056;2023-02-15T05:59:41;1.08;81.30
69225;DHT22;56333;51.306;17.056;2023-02-15T06:01:10;1.06;81.28
69225;DHT22;56333;51.306;17.056;2023-02-15T06:02:41;1.05;81.38
69225;DHT22;56333;51.306;17.056;2023-02-15T06:04:10;1.07;81.50
69225;DHT22;56333;51.306;17.056;2023-02-15T06:05:39;1.07;81.53
69225;DHT22;56333;51.306;17.056;2023-02-15T06:07:08;1.08;81.60
69225;DHT22;56333;51.306;17.056;2023-02-15T06:08:38;1.07;81.63
69225;DHT22;56333;51.306;17.056;2023-02-15T06:10:09;1.07;81.65
69225;DHT22;56333;51.306;17.056;2023-02-15T06:11:39;1.08;81.72
69225;DHT22;56333;51.306;17.056;2023-02-15T06:13:08;1.08;81.68
69225;DHT22;56333;51.306;17.056;2023-02-15T06:14:37;1.09;81.70
69225;DHT22;56333;51.306;17.056;2023-02-15T06:16:06;1.09;81.57
69225;DHT22;56333;51.306;17.056;2023-02-15T06:17:35;1.10;81.50
69225;DHT22;56333;51.306;17.056;2023-02-15T06:19:05;1.08;81.43
69225;DHT22;56333;51.306;17.056;2023-02-15T06:20:33;1.06;81.30
69225;DHT22;56333;51.306;17.056;2023-02-15T06:22:03;1.05;81.32
69225;DHT22;56333;51.306;17.056;2023-02-15T06:23:32;1.03;81.30
69225;DHT22;56333;51.306;17.056;2023-02-15T06:25:02;1.05;81.40
69225;DHT22;56333;51.306;17.056;2023-02-15T06:26:34;1.03;81.47
69225;DHT22;56333;51.306;17.056;2023-02-15T06:28:03;1.06;81.55
69225;DHT22;56333;51.306;17.056;2023-02-15T06:29:32;1.08;81.65
69225;DHT22;56333;51.306;17.056;2023-02-15T06:31:01;1.08;81.70
69225;DHT22;56333;51.306;17.056;2023-02-15T06:32:32;1.10;81.82
69225;DHT22;56333;51.306;17.056;2023-02-15T06:34:01;1.12;81.72
69225;DHT22;56333;51.306;17.056;2023-02-15T06:35:31;1.11;81.75
69225;DHT22;56333;51.306;17.056;2023-02-15T06:37:00;1.12;81.75
69225;DHT22;56333;51.306;17.056;2023-02-15T06:38:32;1.11;81.68
69225;DHT22;56333;51.306;17.056;2023-02-15T06:40:05;1.11;81.60
69225;DHT22;56333;51.306;17.056;2023-02-15T06:41:38;1.11;81.60
69225;DHT22;56333;51.306;17.056;2023-02-15T06:43:11;1.14;81.78
69225;DHT22;56333;51.306;17.056;2023-02-15T06:44:41;1.16;81.80
69225;DHT22;56333;51.306;17.056;2023-02-15T06:46:09;1.20;81.80
69225;DHT22;56333;51.306;17.056;2023-02-15T06:47:40;1.25;82.05
69225;DHT22;56333;51.306;17.056;2023-02-15T06:49:11;1.27;82.03
69225;DHT22;56333;51.306;17.056;2023-02-15T06:50:40;1.30;82.07
69225;DHT22;56333;51.306;17.056;2023-02-15T06:52:09;1.33;82.00
69225;DHT22;56333;51.306;17.056;2023-02-15T06:53:38;1.36;81.90
69225;DHT22;56333;51.306;17.056;2023-02-15T06:55:08;1.36;81.82
69225;DHT22;56333;51.306;17.056;2023-02-15T06:56:37;1.39;81.72
69225;DHT22;56333;51.306;17.056;2023-02-15T06:58:06;1.40;81.63
69225;DHT22;56333;51.306;17.056;2023-02-15T06:59:36;1.40;81.68
69225;DHT22;56333;51.306;17.056;2023-02-15T07:01:07;1.42;81.70
69225;DHT22;56333;51.306;17.056;2023-02-15T07:02:38;1.45;81.80
69225;DHT22;56333;51.306;17.056;2023-02-15T07:04:08;1.50;81.90
69225;DHT22;56333;51.306;17.056;2023-02-15T07:05:37;1.53;81.82
69225;DHT22;56333;51.306;17.056;2023-02-15T07:07:09;1.57;82.03
69225;DHT22;56333;51.306;17.056;2023-02-15T07:08:39;1.61;82.00
69225;DHT22;56333;51.306;17.056;2023-02-15T07:10:10;1.63;81.90
69225;DHT22;56333;51.306;17.056;2023-02-15T07:11:39;1.66;81.80
69225;DHT22;56333;51.306;17.056;2023-02-15T07:13:26;1.68;81.75
69225;DHT22;56333;51.306;17.056;2023-02-15T07:14:56;1.69;81.60
69225;DHT22;56333;51.306;17.056;2023-02-15T07:16:26;1.71;81.53
69225;DHT22;56333;51.306;17.056;2023-02-15T07:17:56;1.73;81.40
69225;DHT22;56333;51.306;17.056;2023-02-15T07:19:25;1.75;81.43
69225;DHT22;56333;51.306;17.056;2023-02-15T07:20:56;1.78;81.60
69225;DHT22;56333;51.306;17.056;2023-02-15T07:22:45;1.86;81.72
69225;DHT22;56333;51.306;17.056;2023-02-15T07:24:15;1.91;81.90
69225;DHT22;56333;51.306;17.056;2023-02-15T07:26:00;1.95;81.88
69225;DHT22;56333;51.306;17.056;2023-02-15T07:27:34;2.01;81.80
69225;DHT22;56333;51.306;17.056;2023-02-15T07:29:15;2.05;81.65
69225;DHT22;56333;51.306;17.056;2023-02-15T07:30:51;2.06;81.50
69225;DHT22;56333;51.306;17.056;2023-02-15T07:32:41;2.11;81.38
69225;DHT22;56333;51.306;17.056;2023-02-15T07:34:29;2.13;81.40
69225;DHT22;56333;51.306;17.056;2023-02-15T07:36:03;2.18;81.32
69225;DHT22;56333;51.306;17.056;2023-02-15T07:37:37;2.24;81.45
69225;DHT22;56333;51.306;17.056;2023-02-15T07:39:09;2.30;81.60
69225;DHT22;56333;51.306;17.056;2023-02-15T07:40:41;2.37;81.68
69225;DHT22;56333;51.306;17.056;2023-02-15T07:42:12;2.41;81.63
69225;DHT22;56333;51.306;17.056;2023-02-15T07:43:43;2.44;81.43
69225;DHT22;56333;51.306;17.056;2023-02-15T07:45:20;2.47;81.25
69225;DHT22;56333;51.306;17.056;2023-02-15T07:46:54;2.49;81.07
69225;DHT22;56333;51.306;17.056;2023-02-15T07:48:24;2.53;80.88
69225;DHT22;56333;51.306;17.056;2023-02-15T07:49:57;2.53;80.80
69225;DHT22;56333;51.306;17.056;2023-02-15T07:51:27;2.54;80.82
69225;DHT22;56333;51.306;17.056;2023-02-15T07:52:56;2.56;80.93
69225;DHT22;56333;51.306;17.056;2023-02-15T07:54:32;2.60;81.05
69225;DHT22;56333;51.306;17.056;2023-02-15T07:56:02;2.65;81.18
69225;DHT22;56333;51.306;17.056;2023-02-15T07:57:35;2.68;81.10
69225;DHT22;56333;51.306;17.056;2023-02-15T07:59:05;2.68;80.93
69225;DHT22;56333;51.306;17.056;2023-02-15T08:00:38;2.69;80.80
69225;DHT22;56333;51.306;17.056;2023-02-15T08:02:22;2.70;80.68
69225;DHT22;56333;51.306;17.056;2023-02-15T08:03:53;2.70;80.50
69225;DHT22;56333;51.306;17.056;2023-02-15T08:05:26;2.70;80.35
69225;DHT22;56333;51.306;17.056;2023-02-15T08:06:59;2.70;80.45
69225;DHT22;56333;51.306;17.056;2023-02-15T08:08:35;2.72;80.57
69225;DHT22;56333;51.306;17.056;2023-02-15T08:10:21;2.76;80.72
69225;DHT22;56333;51.306;17.056;2023-02-15T08:12:17;2.82;80.90
69225;DHT22;56333;51.306;17.056;2023-02-15T08:13:48;2.84;80.80
69225;DHT22;56333;51.306;17.056;2023-02-15T08:15:19;2.85;80.50
69225;DHT22;56333;51.306;17.056;2023-02-15T08:16:51;2.86;80.35
69225;DHT22;56333;51.306;17.056;2023-02-15T08:18:28;2.85;80.18
69225;DHT22;56333;51.306;17.056;2023-02-15T08:20:01;2.83;79.95
69225;DHT22;56333;51.306;17.056;2023-02-15T08:21:37;2.80;79.90
69225;DHT22;56333;51.306;17.056;2023-02-15T08:23:10;2.81;80.10
69225;DHT22;56333;51.306;17.056;2023-02-15T08:24:39;2.78;80.32
69225;DHT22;56333;51.306;17.056;2023-02-15T08:26:30;2.81;80.38
69225;DHT22;56333;51.306;17.056;2023-02-15T08:28:01;2.83;80.30
69225;DHT22;56333;51.306;17.056;2023-02-15T08:29:36;2.84;80.13
69225;DHT22;56333;51.306;17.056;2023-02-15T08:31:13;2.83;80.10
69225;DHT22;56333;51.306;17.056;2023-02-15T08:32:44;2.82;79.97
69225;DHT22;56333;51.306;17.056;2023-02-15T08:34:18;2.84;79.95
69225;DHT22;56333;51.306;17.056;2023-02-15T08:35:50;2.84;80.00
69225;DHT22;56333;51.306;17.056;2023-02-15T08:37:37;2.88;80.10
69225;DHT22;56333;51.306;17.056;2023-02-15T08:39:09;2.94;80.30
69225;DHT22;56333;51.306;17.056;2023-02-15T08:40:41;2.96;80.35
69225;DHT22;56333;51.306;17.056;2023-02-15T08:42:29;3.01;80.30
69225;DHT22;56333;51.306;17.056;2023-02-15T08:44:03;3.04;80.20
69225;DHT22;56333;51.306;17.056;2023-02-15T08:45:36;3.07;80.10
69225;DHT22;56333;51.306;17.056;2023-02-15T08:47:08;3.09;80.07
69225;DHT22;56333;51.306;17.056;2023-02-15T08:48:40;3.12;79.93
69225;DHT22;56333;51.306;17.056;2023-02-15T08:50:11;3.13;79.72
69225;DHT22;56333;51.306;17.056;2023-02-15T08:51:40;3.16;79.65
69225;DHT22;56333;51.306;17.056;2023-02-15T08:53:11;3.18;79.50
69225;DHT22;56333;51.306;17.056;2023-02-15T08:54:47;3.19;79.40
69225;DHT22;56333;51.306;17.056;2023-02-15T08:56:18;3.23;79.45
69225;DHT22;56333;51.306;17.056;2023-02-15T08:58:02;3.25;79.50
69225;DHT22;56333;51.306;17.056;2023-02-15T08:59:32;3.29;79.63
69225;DHT22;56333;51.306;17.056;2023-02-15T09:01:24;3.34;79.60
69225;DHT22;56333;51.306;17.056;2023-02-15T09:02:56;3.36;79.40
69225;DHT22;56333;51.306;17.056;2023-02-15T09:04:29;3.36;79.10
69225;DHT22;56333;51.306;17.056;2023-02-15T09:06:02;3.37;79.07
69225;DHT22;56333;51.306;17.056;2023-02-15T09:07:33;3.38;79.07
69225;DHT22;56333;51.306;17.056;2023-02-15T09:09:51;3.41;79.00
69225;DHT22;56333;51.306;17.056;2023-02-15T09:11:28;3.45;78.90
69225;DHT22;56333;51.306;17.056;2023-02-15T09:13:02;3.46;78.80
69225;DHT22;56333;51.306;17.056;2023-02-15T09:14:33;3.50;78.60
69225;DHT22;56333;51.306;17.056;2023-02-15T09:16:04;3.53;78.50
69225;DHT22;56333;51.306;17.056;2023-02-15T09:17:35;3.58;78.63
69225;DHT22;56333;51.306;17.056;2023-02-15T09:19:06;3.62;78.65
69225;DHT22;56333;51.306;17.056;2023-02-15T09:20:38;3.65;78.63
69225;DHT22;56333;51.306;17.056;2023-02-15T09:22:07;3.69;78.22
69225;DHT22;56333;51.306;17.056;2023-02-15T09:23:35;3.70;78.18
69225;DHT22;56333;51.306;17.056;2023-02-15T09:25:05;3.72;77.82
69225;DHT22;56333;51.306;17.056;2023-02-15T09:26:37;3.75;77.65
69225;DHT22;56333;51.306;17.056;2023-02-15T09:28:08;3.77;77.57
69225;DHT22;56333;51.306;17.056;2023-02-15T09:29:38;3.77;77.53
69225;DHT22;56333;51.306;17.056;2023-02-15T09:31:10;3.79;77.38
69225;DHT22;56333;51.306;17.056;2023-02-15T09:32:42;3.79;77.13
69225;DHT22;56333;51.306;17.056;2023-02-15T09:34:12;3.81;77.22
69225;DHT22;56333;51.306;17.056;2023-02-15T09:35:44;3.84;77.45
69225;DHT22;56333;51.306;17.056;2023-02-15T09:37:13;3.89;77.53
69225;DHT22;56333;51.306;17.056;2023-02-15T09:38:43;3.91;77.38
69225;DHT22;56333;51.306;17.056;2023-02-15T09:40:14;3.93;77.32
69225;DHT22;56333;51.306;17.056;2023-02-15T09:42:19;3.97;77.25
69225;DHT22;56333;51.306;17.056;2023-02-15T09:44:29;4.01;77.15
69225;DHT22;56333;51.306;17.056;2023-02-15T09:46:25;4.03;76.80
69225;DHT22;56333;51.306;17.056;2023-02-15T09:50:10;4.07;76.72
69225;DHT22;56333;51.306;17.056;2023-02-15T09:51:57;4.11;76.78
69225;DHT22;56333;51.306;17.056;2023-02-15T09:53:59;4.19;77.03
69225;DHT22;56333;51.306;17.056;2023-02-15T09:55:51;4.27;77.07
69225;DHT22;56333;51.306;17.056;2023-02-15T09:57:30;4.32;77.03
69225;DHT22;56333;51.306;17.056;2023-02-15T09:59:29;4.39;76.85
69225;DHT22;56333;51.306;17.056;2023-02-15T10:01:11;4.45;76.35
69225;DHT22;56333;51.306;17.056;2023-02-15T10:03:04;4.49;75.93